Time;durP1;ratioP1;P1;durP2;ratioP2;P2;SDS_P1;SDS_P2;PMS_P1;PMS_P2;Temp;Humidity;BMP_temperature;BMP_pressure;BME280_temperature;BME280_humidity;BME280_pressure;Samples;Min_cycle;Max_cycle;Signal;HPM_P1;HPM_P2
2022/03/12 00:04:30;;;;;;;1.08;0.50;;;9.90;74.50;;;;;;20667958;28;20047;-60
2022/03/12 00:14:35;;;;;;;2.13;0.50;;;9.90;73.70;;;;;;20669270;28;20042;-61
2022/03/12 00:24:41;;;;;;;1.73;0.50;;;9.90;73.10;;;;;;20667048;28;20066;-61
2022/03/12 00:34:43;;;;;;;1.35;0.50;;;10.10;72.70;;;;;;20666599;28;20085;-60
2022/03/12 00:44:45;;;;;;;3.05;0.93;;;10.20;72.20;;;;;;20667273;28;20058;-61
2022/03/12 00:54:51;;;;;;;3.55;1.08;;;10.20;72.00;;;;;;20667554;28;20484;-61
2022/03/12 01:04:53;;;;;;;1.25;0.50;;;10.00;72.20;;;;;;20671114;28;20054;-60
2022/03/12 01:14:55;;;;;;;1.98;0.50;;;10.00;71.50;;;;;;20681107;28;20054;-60
2022/03/12 01:24:56;;;;;;;2.38;0.50;;;9.90;70.90;;;;;;20680164;28;20062;-61
2022/03/12 01:34:57;;;;;;;0.93;0.38;;;9.70;69.90;;;;;;20680094;28;20410;-61
2022/03/12 01:45:01;;;;;;;3.33;0.63;;;9.50;69.30;;;;;;20679519;28;20057;-61
2022/03/12 01:55:06;;;;;;;1.33;0.45;;;9.40;69.50;;;;;;20677974;28;20053;-62
2022/03/12 02:05:10;;;;;;;2.92;0.55;;;9.20;69.60;;;;;;20677052;28;20054;-61
2022/03/12 02:15:13;;;;;;;2.13;0.38;;;8.90;68.60;;;;;;20676073;28;20189;-62
2022/03/12 02:25:14;;;;;;;2.10;0.60;;;8.80;68.30;;;;;;20675645;28;20054;-61
2022/03/12 02:35:24;;;;;;;3.15;0.60;;;8.80;68.00;;;;;;20675004;28;20050;-59
2022/03/12 02:45:30;;;;;;;4.18;0.63;;;8.80;68.00;;;;;;20674373;28;20057;-61
2022/03/12 02:55:45;;;;;;;3.97;0.50;;;8.80;67.50;;;;;;20673705;28;20384;-60
2022/03/12 03:05:55;;;;;;;2.15;0.60;;;8.70;67.80;;;;;;20673692;28;20129;-60
2022/03/12 03:16:18;;;;;;;5.43;1.08;;;8.70;67.80;;;;;;20672450;28;20129;-61
2022/03/12 03:26:39;;;;;;;2.10;0.52;;;8.70;67.70;;;;;;20669663;28;20058;-60
2022/03/12 03:36:55;;;;;;;2.05;0.50;;;8.60;67.80;;;;;;20671032;28;20399;-61
2022/03/12 03:47:07;;;;;;;4.13;1.25;;;8.50;67.20;;;;;;20670602;28;20050;-61
2022/03/12 03:57:17;;;;;;;3.03;0.80;;;8.60;65.90;;;;;;20669822;28;20417;-61
2022/03/12 04:07:26;;;;;;;2.90;0.68;;;8.60;65.50;;;;;;20668292;28;20058;-61
2022/03/12 04:17:34;;;;;;;3.10;1.27;;;8.60;65.40;;;;;;20669220;28;20058;-60
2022/03/12 04:27:42;;;;;;;6.25;0.95;;;8.50;65.40;;;;;;20666909;28;20058;-60
2022/03/12 04:37:55;;;;;;;3.88;0.80;;;8.40;65.40;;;;;;20666412;28;20053;-61
2022/03/12 04:48:17;;;;;;;4.57;1.00;;;8.30;65.80;;;;;;20667381;28;20099;-60
2022/03/12 04:58:24;;;;;;;4.82;0.70;;;8.20;65.40;;;;;;20666138;28;20046;-61
2022/03/12 05:08:36;;;;;;;3.15;0.57;;;8.10;65.60;;;;;;20665737;28;20058;-60
2022/03/12 05:18:43;;;;;;;5.35;0.73;;;8.10;65.30;;;;;;20666343;28;20112;-59
2022/03/12 05:28:53;;;;;;;4.93;0.80;;;7.90;65.40;;;;;;20664695;28;20058;-62
2022/03/12 05:38:57;;;;;;;5.82;0.68;;;7.80;65.50;;;;;;20664225;28;20093;-60
2022/03/12 05:49:06;;;;;;;4.93;1.40;;;7.70;65.80;;;;;;20679273;28;20054;-60
2022/03/12 05:59:15;;;;;;;3.72;0.85;;;7.60;65.70;;;;;;20678819;28;20054;-60
2022/03/12 06:09:19;;;;;;;2.20;0.77;;;7.50;66.00;;;;;;20677361;28;20057;-60
2022/03/12 06:19:29;;;;;;;5.70;1.15;;;7.40;66.50;;;;;;20676870;28;20042;-61
2022/03/12 06:29:35;;;;;;;4.95;1.48;;;7.30;66.80;;;;;;20675596;28;20058;-60
2022/03/12 06:39:43;;;;;;;4.88;0.82;;;7.30;66.60;;;;;;20675046;28;20373;-60
2022/03/12 06:50:04;;;;;;;5.57;1.10;;;7.20;66.20;;;;;;20675147;28;20057;-62
2022/03/12 07:00:31;;;;;;;4.88;1.15;;;7.30;66.20;;;;;;20673732;28;20046;-60
2022/03/12 07:10:49;;;;;;;2.05;0.93;;;7.50;66.00;;;;;;20673154;28;20057;-60
2022/03/12 07:21:02;;;;;;;7.45;1.20;;;7.60;65.50;;;;;;20672094;28;20043;-59
2022/03/12 07:31:17;;;;;;;7.85;2.15;;;7.70;65.80;;;;;;20684734;28;20046;-60
2022/03/12 07:41:25;;;;;;;2.92;1.00;;;7.80;65.30;;;;;;20671569;28;20043;-60
2022/03/12 07:51:36;;;;;;;5.60;1.75;;;8.10;64.60;;;;;;20669342;28;20065;-60
2022/03/12 08:01:44;;;;;;;9.05;1.35;;;8.30;63.80;;;;;;20668897;28;20042;-60
2022/03/12 08:12:04;;;;;;;4.50;1.58;;;8.60;63.90;;;;;;20667287;28;20101;-61
2022/03/12 08:22:11;;;;;;;12.88;3.53;;;8.70;63.70;;;;;;20668059;28;20047;-62
2022/03/12 08:32:14;;;;;;;10.00;2.17;;;8.90;63.70;;;;;;20667145;28;20054;-61
2022/03/12 08:42:17;;;;;;;6.55;1.80;;;8.90;63.90;;;;;;20665538;28;20056;-61
2022/03/12 08:52:20;;;;;;;11.15;2.28;;;9.10;64.10;;;;;;20667371;28;20101;-59
2022/03/12 09:02:23;;;;;;;6.43;1.88;;;9.40;64.40;;;;;;20666644;28;20081;-60
2022/03/12 09:12:25;;;;;;;4.57;1.55;;;9.90;64.90;;;;;;20666092;28;20065;-59
2022/03/12 09:22:28;;;;;;;5.15;1.83;;;10.30;65.30;;;;;;20663963;28;20046;-58
2022/03/12 09:32:31;;;;;;;3.08;1.17;;;11.10;64.30;;;;;;20679825;28;20046;-61
2022/03/12 09:42:34;;;;;;;6.30;2.28;;;11.20;64.10;;;;;;20680229;28;20054;-61
2022/03/12 09:52:36;;;;;;;6.55;2.00;;;11.20;64.20;;;;;;20678727;28;20544;-60
2022/03/12 10:02:42;;;;;;;4.70;2.20;;;11.40;64.90;;;;;;20676673;28;20046;-61
2022/03/12 10:12:45;;;;;;;3.70;1.80;;;11.80;63.80;;;;;;20676325;28;20050;-61
2022/03/12 10:22:48;;;;;;;4.55;2.13;;;11.90;63.80;;;;;;20675030;28;20046;-57
2022/03/12 10:32:52;;;;;;;4.25;2.60;;;12.20;64.40;;;;;;20674413;28;20104;-61
2022/03/12 10:43:07;;;;;;;5.00;2.30;;;12.50;62.70;;;;;;20675898;28;20459;-61
2022/03/12 10:53:11;;;;;;;7.65;1.60;;;12.20;62.50;;;;;;20676746;28;20058;-60
2022/03/12 11:03:25;;;;;;;21.67;4.30;;;12.40;61.40;;;;;;20674682;28;20046;-61
2022/03/12 11:13:44;;;;;;;4.57;2.13;;;12.40;61.30;;;;;;20673086;28;20082;-61
2022/03/12 11:23:45;;;;;;;2.85;1.33;;;12.60;61.90;;;;;;20672638;28;20058;-60
2022/03/12 11:33:47;;;;;;;4.93;1.15;;;12.70;61.10;;;;;;20670571;28;20054;-60
2022/03/12 11:43:49;;;;;;;6.68;1.52;;;13.10;59.40;;;;;;20669828;28;20050;-61
2022/03/12 11:53:53;;;;;;;6.97;1.05;;;13.20;58.40;;;;;;20669412;28;20054;-62
2022/03/12 12:03:55;;;;;;;7.28;1.48;;;13.30;57.50;;;;;;20670025;28;20132;-61
2022/03/12 12:13:58;;;;;;;2.85;1.00;;;13.70;56.00;;;;;;20669125;28;20505;-61
2022/03/12 12:24:26;;;;;;;2.72;0.90;;;13.90;54.80;;;;;;20668461;28;20473;-60
2022/03/12 12:34:29;;;;;;;4.15;0.80;;;14.10;51.30;;;;;;20668375;28;20047;-61
2022/03/12 12:44:42;;;;;;;8.85;3.42;;;14.40;51.70;;;;;;20667264;28;20047;-61
2022/03/12 12:54:46;;;;;;;2.15;0.90;;;14.70;50.40;;;;;;20667664;28;20058;-61
2022/03/12 13:04:49;;;;;;;3.55;0.77;;;14.70;50.10;;;;;;20678859;28;20060;-61
2022/03/12 13:14:51;;;;;;;3.83;0.90;;;15.10;49.50;;;;;;20684329;28;20053;-60
2022/03/12 13:25:02;;;;;;;3.25;1.00;;;14.60;50.00;;;;;;20681630;28;20068;-61
2022/03/12 13:35:06;;;;;;;5.78;1.25;;;14.60;50.20;;;;;;20679586;28;20057;-60
2022/03/12 13:45:13;;;;;;;4.50;1.00;;;14.80;49.40;;;;;;20680736;28;20085;-60
2022/03/12 13:55:15;;;;;;;35.70;2.58;;;14.90;49.60;;;;;;20679351;28;20052;-61
2022/03/12 14:05:29;;;;;;;4.05;1.00;;;14.80;49.90;;;;;;20680211;28;20189;-62
2022/03/12 14:15:32;;;;;;;3.03;1.05;;;14.90;49.70;;;;;;20691831;28;20057;-60
2022/03/12 14:25:35;;;;;;;2.53;1.02;;;14.70;49.60;;;;;;20678680;28;20487;-60
2022/03/12 14:35:37;;;;;;;2.05;0.98;;;15.00;49.30;;;;;;20678445;28;20065;-61
2022/03/12 14:45:39;;;;;;;4.15;0.85;;;14.80;49.00;;;;;;20676091;28;20114;-62
2022/03/12 14:55:45;;;;;;;4.53;0.82;;;15.00;49.10;;;;;;20675094;28;20055;-60
2022/03/12 15:05:48;;;;;;;2.28;1.00;;;15.00;49.30;;;;;;20675227;28;20058;-61
2022/03/12 15:15:50;;;;;;;2.05;0.50;;;15.20;49.10;;;;;;20673655;28;20058;-60
2022/03/12 15:25:59;;;;;;;1.92;0.73;;;15.40;48.70;;;;;;20671667;28;20499;-62
2022/03/12 15:36:13;;;;;;;;;;;15.40;49.00;;;;;;20671830;28;20050;-60
2022/03/12 15:46:15;;;;;;;2.67;0.60;;;15.20;48.00;;;;;;20670865;28;19922;-60
2022/03/12 15:56:19;;;;;;;3.30;0.70;;;15.00;48.70;;;;;;20670001;28;20101;-60
2022/03/12 16:06:21;;;;;;;3.05;0.60;;;14.70;49.30;;;;;;20685459;28;20498;-61
2022/03/12 16:16:22;;;;;;;2.20;0.65;;;14.50;49.80;;;;;;20669058;28;20475;-62
2022/03/12 16:26:24;;;;;;;2.95;0.90;;;14.20;51.20;;;;;;20667831;28;20053;-62
2022/03/12 16:36:26;;;;;;;3.45;0.80;;;14.00;52.10;;;;;;20666792;28;20053;-61
2022/03/12 16:46:28;;;;;;;2.85;0.98;;;14.20;52.10;;;;;;20667879;28;20234;-61
2022/03/12 16:56:30;;;;;;;6.60;0.73;;;13.90;53.00;;;;;;20682474;28;20537;-61
2022/03/12 17:06:33;;;;;;;5.60;1.00;;;13.70;53.70;;;;;;20665772;28;20058;-61
2022/03/12 17:16:34;;;;;;;3.53;1.00;;;13.40;54.70;;;;;;20664310;28;20566;-62
2022/03/12 17:26:41;;;;;;;5.15;1.10;;;13.30;55.60;;;;;;20665628;28;20104;-61
2022/03/12 17:36:43;;;;;;;3.13;0.90;;;13.20;56.10;;;;;;20663442;28;20419;-60
2022/03/12 17:46:45;;;;;;;4.82;0.85;;;13.10;56.50;;;;;;20670143;28;20060;-61
2022/03/12 17:56:46;;;;;;;5.50;0.90;;;12.80;57.30;;;;;;20680268;28;20138;-61
2022/03/12 18:06:47;;;;;;;4.40;1.25;;;12.70;57.70;;;;;;20678135;28;20507;-61
2022/03/12 18:16:49;;;;;;;7.47;1.10;;;12.70;58.30;;;;;;20677529;28;20086;-61
2022/03/12 18:26:51;;;;;;;5.95;1.05;;;12.70;58.80;;;;;;20676316;28;20058;-61
2022/03/12 18:36:52;;;;;;;4.43;1.35;;;12.50;59.50;;;;;;20675726;28;20054;-63
2022/03/12 18:46:53;;;;;;;2.72;0.95;;;12.40;60.10;;;;;;20674839;28;20144;-62
2022/03/12 18:56:57;;;;;;;6.13;0.80;;;12.30;60.80;;;;;;20673444;28;20177;-59
2022/03/12 19:06:58;;;;;;;2.95;0.93;;;12.30;61.30;;;;;;20674013;28;20090;-61
2022/03/12 19:17:00;;;;;;;5.60;1.20;;;12.30;61.30;;;;;;20673774;28;20050;-60
2022/03/12 19:27:06;;;;;;;4.72;1.33;;;12.30;61.60;;;;;;20671828;28;20573;-60
2022/03/12 19:37:08;;;;;;;4.55;0.90;;;12.30;61.90;;;;;;20686491;28;20053;-61
2022/03/12 19:47:11;;;;;;;4.85;1.35;;;12.30;62.20;;;;;;20671025;28;20077;-61
2022/03/12 19:57:21;;;;;;;4.30;1.25;;;12.30;62.50;;;;;;20671957;28;20046;-63
2022/03/12 20:07:29;;;;;;;3.22;1.48;;;12.20;63.10;;;;;;20669639;28;20137;-61
2022/03/12 20:17:32;;;;;;;4.47;1.40;;;12.10;63.80;;;;;;20669812;28;20093;-61
2022/03/12 20:27:35;;;;;;;7.68;1.67;;;12.00;64.30;;;;;;20668620;28;20507;-61
2022/03/12 20:37:38;;;;;;;5.40;1.63;;;12.00;64.50;;;;;;20668012;28;20047;-64
2022/03/12 20:47:46;;;;;;;8.52;1.45;;;12.00;64.70;;;;;;20667186;28;20047;-61
2022/03/12 20:57:54;;;;;;;7.07;1.90;;;12.00;64.90;;;;;;20667319;28;20475;-62
2022/03/12 21:08:12;;;;;;;5.55;1.77;;;12.00;65.30;;;;;;20667628;28;20050;-64
2022/03/12 21:18:17;;;;;;;5.55;1.70;;;11.90;65.70;;;;;;20666387;28;20054;-62
2022/03/12 21:28:19;;;;;;;8.52;2.30;;;12.00;65.80;;;;;;20681605;28;20137;-61
2022/03/12 21:38:23;;;;;;;8.50;1.95;;;12.00;66.00;;;;;;20682136;28;20050;-62
2022/03/12 21:48:25;;;;;;;6.45;2.10;;;11.90;66.10;;;;;;20695367;28;20487;-62
2022/03/12 21:58:31;;;;;;;8.80;1.67;;;12.00;66.30;;;;;;20679979;28;20101;-61
2022/03/12 22:08:33;;;;;;;7.72;2.20;;;11.90;66.50;;;;;;20678386;28;20097;-61
2022/03/12 22:18:34;;;;;;;7.90;1.90;;;11.90;66.90;;;;;;20678037;28;20109;-59
2022/03/12 22:28:36;;;;;;;6.82;2.20;;;11.80;67.50;;;;;;20677526;28;20418;-60
2022/03/12 22:38:40;;;;;;;6.20;2.00;;;11.90;67.50;;;;;;20673815;28;20450;-61
2022/03/12 22:48:44;;;;;;;9.55;2.42;;;11.80;67.70;;;;;;20676058;28;20054;-61
2022/03/12 22:58:45;;;;;;;8.98;2.42;;;11.80;68.60;;;;;;20674481;28;20048;-63
2022/03/12 23:08:49;;;;;;;10.98;2.60;;;11.70;69.70;;;;;;20673895;28;20547;-60
2022/03/12 23:19:00;;;;;;;9.18;2.55;;;11.40;71.30;;;;;;20673802;28;20069;-61
2022/03/12 23:29:07;;;;;;;5.15;2.50;;;11.30;72.40;;;;;;20673512;28;20406;-62
2022/03/12 23:39:08;;;;;;;13.50;3.03;;;11.30;72.90;;;;;;20671235;28;20042;-60
2022/03/12 23:49:10;;;;;;;9.32;3.25;;;11.20;74.00;;;;;;20673250;28;20081;-62
2022/03/12 23:59:16;;;;;;;8.90;2.35;;;11.00;75.30;;;;;;20671480;28;20050;-61
